Time;durP1;ratioP1;P1;durP2;ratioP2;P2;SDS_P1;SDS_P2;PMS_P1;PMS_P2;Temp;Humidity;BMP_temperature;BMP_pressure;BME280_temperature;BME280_humidity;BME280_pressure;Samples;Min_cycle;Max_cycle;Signal;HPM_P1;HPM_P2
2023/01/17 00:00:08;;;;;;;12.67;11.87;;;2.60;99.90;;;;;;5061993;28;20996;-71
2023/01/17 00:02:35;;;;;;;13.80;13.07;;;2.70;99.90;;;;;;5063284;28;20893;-71
2023/01/17 00:10:33;;;;;;;13.27;12.40;;;2.90;99.90;;;;;;5071001;28;20466;-72
2023/01/17 00:13:02;;;;;;;13.17;12.30;;;2.90;99.90;;;;;;5062995;28;20902;-71
2023/01/17 00:15:30;;;;;;;13.03;12.30;;;2.90;99.90;;;;;;5067091;28;20466;-72
2023/01/17 00:17:58;;;;;;;11.50;10.90;;;2.90;99.90;;;;;;5066337;28;20786;-71
2023/01/17 00:26:03;;;;;;;11.60;10.90;;;2.90;99.90;;;;;;5069069;28;20514;-71
2023/01/17 01:35:30;;;;;;;11.60;10.90;;;2.80;99.90;;;;;;5074957;28;21168;-70
2023/01/17 01:37:57;;;;;;;10.97;10.43;;;2.80;99.90;;;;;;5075144;28;20960;-72
2023/01/17 01:40:24;;;;;;;11.70;10.90;;;2.80;99.90;;;;;;5063647;28;20645;-71
2023/01/17 01:42:55;;;;;;;11.97;11.17;;;2.70;99.90;;;;;;5061492;28;20497;-71
2023/01/17 01:45:24;;;;;;;11.00;10.20;;;2.70;99.90;;;;;;5058667;28;20510;-71
2023/01/17 01:47:55;;;;;;;11.53;10.90;;;2.70;99.90;;;;;;5072052;28;20486;-73
2023/01/17 01:50:23;;;;;;;11.53;10.77;;;2.70;99.90;;;;;;5075134;28;20474;-72
2023/01/17 01:52:55;;;;;;;16.47;11.40;;;2.60;99.90;;;;;;5074544;28;20456;-72
2023/01/17 01:55:25;;;;;;;11.43;10.60;;;2.60;99.90;;;;;;5065050;28;20469;-71
2023/01/17 01:57:57;;;;;;;12.80;11.50;;;2.70;99.90;;;;;;5064205;28;20469;-72
2023/01/17 02:00:29;;;;;;;12.50;11.60;;;2.70;99.90;;;;;;5066462;28;20962;-71
2023/01/17 02:02:59;;;;;;;13.17;12.00;;;2.60;99.90;;;;;;5073350;28;20568;-72
2023/01/17 02:05:27;;;;;;;11.13;10.43;;;2.60;99.90;;;;;;5070722;28;20983;-72
2023/01/17 02:08:01;;;;;;;11.10;10.33;;;2.60;99.90;;;;;;5067334;28;20851;-71
2023/01/17 02:10:29;;;;;;;12.90;11.07;;;2.60;99.90;;;;;;5067957;28;21218;-70
2023/01/17 02:12:57;;;;;;;11.40;10.70;;;2.60;99.90;;;;;;5060588;28;20627;-72
2023/01/17 02:15:31;;;;;;;12.07;11.37;;;2.50;99.90;;;;;;5063530;28;20520;-70
2023/01/17 02:18:06;;;;;;;11.27;10.67;;;2.50;99.90;;;;;;5064967;28;20891;-72
2023/01/17 02:21:14;;;;;;;10.77;10.07;;;2.50;99.90;;;;;;5065010;28;20453;-72
2023/01/17 02:24:14;;;;;;;15.67;14.40;;;2.40;99.90;;;;;;4995179;28;20489;-71
2023/01/17 02:26:59;;;;;;;13.10;12.30;;;2.30;99.90;;;;;;4995597;28;20561;-72
2023/01/17 02:30:05;;;;;;;12.40;11.70;;;2.30;99.90;;;;;;5058532;28;20463;-71
2023/01/17 02:32:44;;;;;;;12.07;11.37;;;2.30;99.90;;;;;;5057219;28;20905;-71
2023/01/17 02:35:19;;;;;;;13.13;12.23;;;2.30;99.90;;;;;;5059443;28;20470;-71
2023/01/17 02:37:56;;;;;;;13.80;13.00;;;2.20;99.90;;;;;;5065427;28;20823;-72
2023/01/17 02:40:26;;;;;;;13.37;12.63;;;2.20;99.90;;;;;;5065530;28;20817;-70
2023/01/17 02:42:57;;;;;;;13.40;12.60;;;2.10;99.90;;;;;;5064453;28;20476;-72
2023/01/17 02:45:24;;;;;;;13.33;12.33;;;2.10;99.90;;;;;;5068890;28;20462;-72
2023/01/17 02:47:52;;;;;;;13.63;12.80;;;2.10;99.90;;;;;;5058784;28;20495;-72
2023/01/17 02:50:22;;;;;;;13.93;13.00;;;2.20;99.90;;;;;;5068656;28;20464;-72
2023/01/17 02:53:02;;;;;;;13.67;12.87;;;2.20;99.90;;;;;;5069985;28;22474;-70
2023/01/17 02:55:39;;;;;;;14.50;13.63;;;2.20;99.90;;;;;;5050905;28;20463;-70
2023/01/17 02:58:23;;;;;;;13.77;12.97;;;2.10;99.90;;;;;;5067200;28;20455;-70
2023/01/17 03:01:01;;;;;;;15.97;14.83;;;2.10;99.90;;;;;;5057950;28;20872;-73
2023/01/17 03:03:35;;;;;;;14.80;13.90;;;2.10;99.90;;;;;;5067493;28;20854;-72
2023/01/17 03:06:10;;;;;;;14.17;13.27;;;2.10;99.90;;;;;;5065852;28;20963;-71
2023/01/17 03:08:39;;;;;;;15.70;14.60;;;2.20;99.90;;;;;;5063950;28;20550;-71
2023/01/17 03:11:08;;;;;;;16.67;15.30;;;2.10;99.90;;;;;;5060949;28;20822;-72
2023/01/17 03:13:35;;;;;;;17.30;15.80;;;2.20;99.90;;;;;;5066446;28;20459;-71
2023/01/17 03:16:05;;;;;;;18.17;16.70;;;2.20;99.90;;;;;;5067124;28;20464;-72
2023/01/17 03:18:33;;;;;;;19.67;14.87;;;2.20;99.90;;;;;;5063545;28;20987;-71
2023/01/17 03:21:00;;;;;;;19.10;17.53;;;2.20;99.90;;;;;;5059340;28;20464;-71
2023/01/17 03:23:27;;;;;;;19.77;18.17;;;2.30;99.90;;;;;;5064478;28;20886;-72
2023/01/17 03:25:54;;;;;;;20.53;18.83;;;2.30;99.90;;;;;;5056951;28;20880;-72
2023/01/17 03:28:21;;;;;;;21.20;19.20;;;2.30;99.90;;;;;;5072753;28;20529;-72
2023/01/17 03:30:48;;;;;;;22.37;19.77;;;2.30;99.90;;;;;;5060791;28;20831;-71
2023/01/17 03:33:17;;;;;;;19.20;17.17;;;2.30;99.90;;;;;;5067852;28;20817;-72
2023/01/17 03:35:47;;;;;;;20.77;18.90;;;2.20;99.90;;;;;;5063375;28;20920;-71
2023/01/17 03:38:13;;;;;;;23.27;20.83;;;2.20;99.90;;;;;;5059769;28;20588;-72
2023/01/17 03:40:41;;;;;;;19.37;17.43;;;2.20;99.90;;;;;;5065739;28;20573;-70
2023/01/17 03:43:09;;;;;;;17.23;15.83;;;2.20;99.90;;;;;;5070220;28;20481;-70
2023/01/17 03:45:36;;;;;;;27.10;19.40;;;2.20;99.90;;;;;;5063194;28;20491;-71
2023/01/17 03:48:03;;;;;;;18.90;17.37;;;2.20;99.90;;;;;;5058843;28;20875;-70
2023/01/17 03:50:30;;;;;;;22.17;19.83;;;2.10;99.90;;;;;;5061208;28;21056;-71
2023/01/17 03:52:58;;;;;;;21.83;19.93;;;2.20;99.90;;;;;;5078077;28;20892;-71
2023/01/17 03:55:26;;;;;;;21.03;18.87;;;2.10;99.90;;;;;;5068235;28;20516;-72
2023/01/17 03:57:53;;;;;;;16.37;15.20;;;2.10;99.90;;;;;;5068337;28;20530;-71
2023/01/17 04:00:20;;;;;;;22.60;20.40;;;2.20;99.90;;;;;;5067186;28;21124;-70
2023/01/17 04:02:47;;;;;;;23.40;21.40;;;2.10;99.90;;;;;;5069760;28;20580;-70
2023/01/17 04:05:14;;;;;;;23.67;21.17;;;2.10;99.90;;;;;;5067944;28;20455;-71
2023/01/17 04:07:42;;;;;;;22.27;20.37;;;2.00;99.90;;;;;;5065751;28;20479;-70
2023/01/17 04:10:11;;;;;;;23.43;21.10;;;2.00;99.90;;;;;;5068504;28;20459;-71
2023/01/17 04:12:38;;;;;;;24.30;22.20;;;2.00;99.90;;;;;;5068481;28;20463;-71
2023/01/17 04:15:05;;;;;;;24.93;22.80;;;2.00;99.90;;;;;;5067356;28;20463;-70
2023/01/17 04:17:32;;;;;;;24.00;22.10;;;1.90;99.90;;;;;;5067258;28;20458;-70
2023/01/17 04:19:59;;;;;;;24.43;22.23;;;1.80;99.90;;;;;;5066340;28;20474;-71
2023/01/17 04:22:26;;;;;;;23.90;21.80;;;1.80;99.90;;;;;;5073276;28;20450;-71
2023/01/17 04:24:53;;;;;;;25.17;23.17;;;1.80;99.90;;;;;;5069389;28;20471;-70
2023/01/17 04:27:21;;;;;;;22.40;20.60;;;1.70;99.90;;;;;;5065839;28;20472;-71
2023/01/17 04:29:48;;;;;;;23.27;21.20;;;1.80;99.90;;;;;;5065523;28;20964;-70
2023/01/17 04:32:15;;;;;;;23.60;21.37;;;1.80;99.90;;;;;;5068215;28;20465;-71
2023/01/17 04:34:42;;;;;;;22.90;20.87;;;1.70;99.90;;;;;;5072476;28;20467;-72
2023/01/17 04:37:09;;;;;;;23.93;21.87;;;1.80;99.90;;;;;;5067951;28;20461;-71
2023/01/17 04:39:36;;;;;;;23.53;21.30;;;1.90;99.90;;;;;;5067680;28;20485;-71
2023/01/17 04:42:03;;;;;;;23.70;21.40;;;1.90;99.90;;;;;;5070135;28;20553;-72
2023/01/17 04:44:31;;;;;;;24.13;22.00;;;1.90;99.90;;;;;;5070131;28;20500;-71
2023/01/17 04:47:00;;;;;;;25.10;22.80;;;1.90;99.90;;;;;;5070305;28;21028;-72
2023/01/17 04:49:27;;;;;;;24.23;21.93;;;2.00;99.90;;;;;;5076143;28;20465;-72
2023/01/17 04:51:54;;;;;;;26.33;23.50;;;1.90;99.90;;;;;;5067273;28;20467;-72
2023/01/17 04:54:20;;;;;;;24.70;22.07;;;1.90;99.90;;;;;;5066171;28;20830;-71
2023/01/17 04:56:47;;;;;;;22.57;20.67;;;1.90;99.90;;;;;;5067813;28;20550;-72
2023/01/17 04:59:14;;;;;;;23.97;21.57;;;1.80;99.90;;;;;;5059360;28;20612;-72
2023/01/17 05:01:42;;;;;;;24.70;22.70;;;1.70;99.90;;;;;;5051642;28;20532;-72
2023/01/17 05:04:09;;;;;;;22.63;20.47;;;1.60;99.90;;;;;;5067760;28;20492;-72
2023/01/17 05:06:36;;;;;;;24.60;22.40;;;1.50;99.90;;;;;;5070331;28;20458;-72
2023/01/17 05:09:05;;;;;;;24.23;21.77;;;1.40;99.90;;;;;;5068284;28;20470;-71
2023/01/17 05:11:32;;;;;;;24.07;22.10;;;1.30;99.90;;;;;;5065272;28;20470;-72
2023/01/17 05:13:58;;;;;;;27.10;24.70;;;1.20;99.90;;;;;;5066136;28;20967;-70
2023/01/17 05:16:25;;;;;;;26.93;24.23;;;1.20;99.90;;;;;;5074025;28;20454;-72
2023/01/17 05:18:54;;;;;;;24.90;22.40;;;1.20;99.90;;;;;;5063228;28;20467;-71
2023/01/17 05:21:21;;;;;;;24.37;22.07;;;1.20;99.90;;;;;;5069792;28;20465;-72
2023/01/17 05:23:49;;;;;;;25.07;22.97;;;1.20;99.90;;;;;;5067769;28;20498;-71
2023/01/17 05:26:15;;;;;;;25.90;22.80;;;1.20;99.90;;;;;;5065793;28;20722;-72
2023/01/17 05:28:43;;;;;;;26.30;23.77;;;1.20;99.90;;;;;;5075418;28;20458;-72
2023/01/17 05:31:11;;;;;;;25.77;21.80;;;1.20;99.90;;;;;;5072357;28;20473;-72
2023/01/17 05:33:38;;;;;;;22.00;20.20;;;1.20;99.90;;;;;;5063183;28;20535;-72
2023/01/17 05:36:07;;;;;;;22.87;20.80;;;1.10;99.90;;;;;;5061294;28;20459;-72
2023/01/17 05:38:34;;;;;;;24.63;20.80;;;1.10;99.90;;;;;;5069790;28;20472;-72
2023/01/17 05:41:03;;;;;;;24.03;21.70;;;1.10;99.90;;;;;;5068331;28;20493;-71
2023/01/17 05:43:31;;;;;;;26.30;23.50;;;1.10;99.90;;;;;;5072377;28;21197;-71
2023/01/17 05:45:57;;;;;;;28.33;20.53;;;1.00;99.90;;;;;;5065201;28;20485;-71
2023/01/17 05:48:24;;;;;;;23.03;20.93;;;1.00;99.90;;;;;;5066894;28;20658;-71
2023/01/17 05:50:51;;;;;;;24.70;20.63;;;1.00;99.90;;;;;;5061069;28;20465;-71
2023/01/17 05:53:20;;;;;;;21.40;19.27;;;1.00;99.90;;;;;;5072946;28;20569;-71
2023/01/17 05:55:48;;;;;;;22.37;19.73;;;1.00;99.90;;;;;;5067943;28;20463;-73
2023/01/17 05:58:18;;;;;;;24.60;19.00;;;1.00;99.90;;;;;;5069385;28;20492;-70
2023/01/17 06:00:46;;;;;;;22.17;17.60;;;0.90;99.90;;;;;;5060301;28;20472;-73
2023/01/17 06:03:13;;;;;;;21.50;18.80;;;0.90;99.90;;;;;;5065471;28;20484;-72
2023/01/17 06:05:41;;;;;;;31.83;19.37;;;0.80;99.90;;;;;;5063668;28;20505;-73
2023/01/17 06:08:08;;;;;;;20.67;18.43;;;0.90;99.90;;;;;;5069270;28;20825;-72
2023/01/17 06:10:36;;;;;;;20.43;18.37;;;0.80;99.90;;;;;;5071689;28;20833;-72
2023/01/17 06:13:05;;;;;;;17.80;16.10;;;0.80;99.90;;;;;;5062755;28;20508;-73
2023/01/17 06:15:32;;;;;;;19.50;17.67;;;0.80;99.90;;;;;;5070912;28;20589;-71
2023/01/17 06:18:04;;;;;;;21.63;18.63;;;0.80;99.90;;;;;;5061590;28;20461;-71
2023/01/17 06:20:32;;;;;;;21.60;19.00;;;0.70;99.90;;;;;;5056841;28;20786;-73
2023/01/17 06:23:00;;;;;;;23.83;17.97;;;0.70;99.90;;;;;;5059365;28;20935;-71
2023/01/17 06:25:27;;;;;;;20.87;18.00;;;0.70;99.90;;;;;;5061735;28;20493;-71
2023/01/17 06:27:56;;;;;;;26.50;19.07;;;0.70;99.90;;;;;;5068136;28;20826;-73
2023/01/17 06:30:23;;;;;;;19.80;17.77;;;0.70;99.90;;;;;;5073356;28;21149;-73
2023/01/17 06:32:54;;;;;;;18.37;16.57;;;0.70;99.90;;;;;;5052500;28;21123;-73
2023/01/17 06:35:21;;;;;;;18.77;16.77;;;0.60;99.90;;;;;;5070986;28;20513;-72
2023/01/17 06:37:52;;;;;;;21.70;16.13;;;0.60;99.90;;;;;;5065475;28;20674;-72
2023/01/17 06:40:19;;;;;;;24.40;16.53;;;0.60;99.90;;;;;;5063715;28;20514;-73
2023/01/17 06:42:46;;;;;;;20.00;17.97;;;0.60;99.90;;;;;;5062546;28;20486;-72
2023/01/17 06:45:15;;;;;;;20.63;18.47;;;0.70;99.90;;;;;;5056605;28;20494;-74
2023/01/17 06:47:42;;;;;;;21.23;18.10;;;0.60;99.90;;;;;;5067464;28;20489;-74
2023/01/17 06:50:12;;;;;;;18.17;16.57;;;0.60;99.90;;;;;;5063778;28;20470;-74
2023/01/17 06:52:39;;;;;;;20.30;17.97;;;0.60;99.90;;;;;;5061318;28;20537;-71
2023/01/17 06:55:07;;;;;;;20.83;18.33;;;0.60;99.90;;;;;;5070222;28;21160;-73
2023/01/17 06:57:34;;;;;;;20.70;16.80;;;0.60;99.90;;;;;;5063165;28;20462;-73
2023/01/17 07:00:02;;;;;;;21.97;19.60;;;0.50;99.90;;;;;;5057628;28;20899;-73
2023/01/17 07:02:30;;;;;;;24.70;18.70;;;0.60;99.90;;;;;;5064954;28;20477;-73
2023/01/17 07:04:57;;;;;;;19.27;17.03;;;0.50;99.90;;;;;;5059431;28;20500;-73
2023/01/17 07:07:24;;;;;;;21.67;19.33;;;0.50;99.90;;;;;;5059702;28;20469;-73
2023/01/17 07:09:52;;;;;;;20.00;17.67;;;0.50;99.90;;;;;;5060318;28;20467;-71
2023/01/17 07:12:19;;;;;;;19.83;17.93;;;0.50;99.90;;;;;;5069134;28;20475;-72
2023/01/17 07:14:45;;;;;;;26.80;19.00;;;0.40;99.90;;;;;;5067354;28;20467;-71
2023/01/17 07:17:12;;;;;;;20.33;18.27;;;0.40;99.90;;;;;;5057847;28;20900;-72
2023/01/17 07:19:40;;;;;;;24.33;18.10;;;0.40;99.90;;;;;;5067218;28;20466;-70
2023/01/17 07:22:09;;;;;;;22.80;19.60;;;0.40;99.90;;;;;;5063971;28;20488;-74
2023/01/17 07:24:36;;;;;;;30.77;19.30;;;0.30;99.90;;;;;;5066013;28;20491;-71
2023/01/17 07:27:03;;;;;;;26.77;18.93;;;0.20;99.90;;;;;;5067366;28;20529;-70
2023/01/17 07:29:30;;;;;;;26.40;17.53;;;0.10;99.90;;;;;;5063915;28;20520;-72
2023/01/17 07:31:57;;;;;;;19.57;17.47;;;0.00;99.90;;;;;;5067565;28;20459;-70
2023/01/17 07:34:24;;;;;;;21.83;18.67;;;-0.10;99.90;;;;;;5063857;28;20454;-71
2023/01/17 07:36:53;;;;;;;19.53;17.43;;;-0.10;99.90;;;;;;5066180;28;20481;-72
2023/01/17 07:39:20;;;;;;;21.07;17.47;;;0.00;99.90;;;;;;5072506;28;21015;-72
2023/01/17 07:41:47;;;;;;;22.50;20.10;;;0.00;99.90;;;;;;5067125;28;20537;-72
2023/01/17 07:44:14;;;;;;;23.20;19.23;;;0.10;99.90;;;;;;5067690;28;20606;-73
2023/01/17 07:46:41;;;;;;;22.07;19.73;;;0.20;99.90;;;;;;5064944;28;20658;-72
2023/01/17 07:49:08;;;;;;;20.13;18.13;;;0.20;99.90;;;;;;5069278;28;20951;-71
2023/01/17 07:51:35;;;;;;;19.80;17.70;;;0.20;99.90;;;;;;5061727;28;20497;-73
2023/01/17 07:54:03;;;;;;;22.43;17.00;;;0.30;99.90;;;;;;5059173;28;20498;-72
2023/01/17 07:56:30;;;;;;;25.57;18.67;;;0.30;99.90;;;;;;5065944;28;20466;-72
2023/01/17 07:58:57;;;;;;;21.90;18.20;;;0.30;99.90;;;;;;5065303;28;20842;-70
2023/01/17 08:01:24;;;;;;;22.93;18.03;;;0.10;99.90;;;;;;5065849;28;21263;-72
2023/01/17 08:03:53;;;;;;;20.57;18.43;;;0.00;99.90;;;;;;5060213;28;20854;-71
2023/01/17 08:06:23;;;;;;;20.40;18.53;;;0.00;99.90;;;;;;5068799;28;20824;-73
2023/01/17 08:08:51;;;;;;;21.20;19.00;;;-0.10;99.90;;;;;;5070194;28;20458;-71
2023/01/17 08:11:20;;;;;;;22.50;20.10;;;-0.10;99.90;;;;;;5070692;28;20492;-72
2023/01/17 08:13:46;;;;;;;21.17;18.97;;;-0.10;99.90;;;;;;5067744;28;20472;-71
2023/01/17 08:16:14;;;;;;;21.87;18.37;;;-0.10;99.90;;;;;;5072940;28;20494;-72
2023/01/17 08:18:41;;;;;;;24.33;20.43;;;-0.10;99.90;;;;;;5064112;28;20473;-72
2023/01/17 08:21:14;;;;;;;25.77;20.33;;;0.00;99.90;;;;;;5065777;28;20470;-72
2023/01/17 08:23:40;;;;;;;22.43;19.03;;;0.10;99.90;;;;;;5068267;28;20490;-71
2023/01/17 08:26:08;;;;;;;23.30;20.90;;;0.20;99.90;;;;;;5074432;28;21003;-72
2023/01/17 08:28:36;;;;;;;24.97;20.60;;;0.20;99.90;;;;;;5063317;28;20833;-71
2023/01/17 08:31:07;;;;;;;25.30;20.67;;;0.20;99.90;;;;;;5072743;28;20827;-71
2023/01/17 08:33:34;;;;;;;24.10;20.07;;;0.30;99.90;;;;;;5060966;28;20478;-72
2023/01/17 08:36:01;;;;;;;20.97;18.83;;;0.40;99.90;;;;;;5066530;28;21162;-73
2023/01/17 08:38:27;;;;;;;21.33;19.17;;;0.50;99.90;;;;;;5066155;28;20462;-72
2023/01/17 08:40:54;;;;;;;21.10;18.37;;;0.60;99.90;;;;;;5068433;28;20502;-72
2023/01/17 08:43:21;;;;;;;19.80;17.90;;;0.60;99.90;;;;;;5067401;28;20468;-73
2023/01/17 08:45:50;;;;;;;19.87;17.50;;;0.60;99.90;;;;;;5065687;28;20589;-73
2023/01/17 08:48:17;;;;;;;20.43;18.43;;;0.70;99.90;;;;;;5064919;28;20466;-72
2023/01/17 08:50:45;;;;;;;21.63;18.20;;;0.70;99.90;;;;;;5066938;28;20455;-72
2023/01/17 08:53:11;;;;;;;19.07;16.97;;;0.70;99.90;;;;;;5061606;28;20468;-72
2023/01/17 08:55:39;;;;;;;20.30;17.90;;;0.80;99.90;;;;;;5065673;28;20471;-73
2023/01/17 08:58:06;;;;;;;32.13;18.20;;;0.80;99.90;;;;;;5061080;28;20467;-72
2023/01/17 09:00:33;;;;;;;20.53;17.27;;;0.80;99.90;;;;;;5066283;28;20465;-73
2023/01/17 09:03:01;;;;;;;32.53;19.00;;;0.80;99.90;;;;;;5063981;28;20470;-73
2023/01/17 09:05:28;;;;;;;23.73;18.00;;;0.80;99.90;;;;;;5068444;28;20486;-73
2023/01/17 09:07:55;;;;;;;20.17;17.80;;;0.80;99.90;;;;;;5061587;28;20521;-72
2023/01/17 09:10:22;;;;;;;21.20;18.90;;;0.80;99.90;;;;;;5061394;28;21020;-74
2023/01/17 09:12:49;;;;;;;19.67;17.97;;;0.80;99.90;;;;;;5069374;28;20485;-73
2023/01/17 09:15:19;;;;;;;22.30;18.53;;;0.70;99.90;;;;;;5063668;28;20823;-72
2023/01/17 09:17:45;;;;;;;20.07;18.03;;;0.80;99.90;;;;;;5069079;28;20501;-74
2023/01/17 09:20:15;;;;;;;21.80;19.60;;;0.80;99.90;;;;;;5067624;28;20465;-74
2023/01/17 09:22:42;;;;;;;21.60;19.33;;;0.90;99.90;;;;;;5064357;28;20471;-72
2023/01/17 09:25:09;;;;;;;20.10;18.20;;;0.90;99.90;;;;;;5065383;28;20597;-73
2023/01/17 09:27:36;;;;;;;21.43;19.07;;;1.00;99.90;;;;;;5062684;28;20973;-74
2023/01/17 09:30:03;;;;;;;22.13;19.70;;;1.00;99.90;;;;;;5056838;28;20520;-73
2023/01/17 09:32:30;;;;;;;22.80;20.50;;;1.00;99.90;;;;;;5063933;28;20462;-73
2023/01/17 09:34:59;;;;;;;22.70;20.10;;;1.10;99.90;;;;;;5064504;28;20475;-73
2023/01/17 09:37:28;;;;;;;22.90;20.83;;;1.10;99.90;;;;;;5069471;28;20574;-72
2023/01/17 09:39:55;;;;;;;24.47;22.30;;;1.20;99.90;;;;;;5061117;28;20486;-74
2023/01/17 09:42:31;;;;;;;23.97;21.47;;;1.20;99.90;;;;;;5068172;28;20861;-72
2023/01/17 09:44:59;;;;;;;45.37;23.97;;;1.20;99.90;;;;;;5057660;28;20482;-74
2023/01/17 09:47:34;;;;;;;80.50;30.13;;;1.30;99.90;;;;;;5068831;28;22764;-73
2023/01/17 09:50:19;;;;;;;178.33;40.70;;;1.30;99.90;;;;;;5076142;28;20474;-73
2023/01/17 09:52:47;;;;;;;61.07;27.40;;;1.40;99.90;;;;;;5063556;28;20463;-73
2023/01/17 09:55:16;;;;;;;78.10;29.70;;;1.40;99.90;;;;;;5064768;28;20459;-72
2023/01/17 09:57:55;;;;;;;33.50;26.50;;;1.50;99.90;;;;;;5064685;28;20457;-72
2023/01/17 10:00:34;;;;;;;29.23;26.47;;;1.60;99.90;;;;;;5056468;28;20548;-73
2023/01/17 10:03:25;;;;;;;29.27;25.87;;;1.80;99.90;;;;;;5059476;28;20753;-72
2023/01/17 10:06:11;;;;;;;29.53;26.60;;;1.90;99.90;;;;;;5066015;28;20581;-71
2023/01/17 10:08:58;;;;;;;28.40;25.73;;;2.10;99.90;;;;;;5061793;28;20471;-73
2023/01/17 10:11:39;;;;;;;26.73;24.40;;;2.10;99.90;;;;;;5067053;28;20470;-74
2023/01/17 10:14:27;;;;;;;28.60;26.07;;;2.20;99.90;;;;;;5063423;28;20532;-73
2023/01/17 10:17:02;;;;;;;27.20;24.40;;;2.20;99.90;;;;;;5066069;28;20463;-72
2023/01/17 10:19:45;;;;;;;29.07;26.13;;;2.10;99.90;;;;;;5060232;28;20465;-72
2023/01/17 10:22:37;;;;;;;28.90;26.07;;;2.20;99.90;;;;;;5058437;28;20881;-73
2023/01/17 10:25:28;;;;;;;27.67;25.00;;;2.20;99.90;;;;;;5053864;28;20821;-73
2023/01/17 10:27:59;;;;;;;26.93;24.30;;;2.20;99.90;;;;;;5057980;28;20787;-73
2023/01/17 10:30:33;;;;;;;29.17;25.90;;;2.20;99.90;;;;;;5053938;28;20575;-72
2023/01/17 10:33:03;;;;;;;28.87;24.40;;;2.20;99.90;;;;;;5061327;28;21007;-71
2023/01/17 10:35:36;;;;;;;35.03;25.43;;;2.20;99.90;;;;;;5071502;28;20826;-72
2023/01/17 10:38:11;;;;;;;28.90;25.80;;;2.10;99.90;;;;;;5070265;28;20476;-71
2023/01/17 10:40:44;;;;;;;29.07;26.40;;;2.20;99.90;;;;;;5061943;28;20519;-72
2023/01/17 10:43:17;;;;;;;30.80;26.33;;;2.20;99.90;;;;;;5062775;28;20462;-72
2023/01/17 10:45:51;;;;;;;29.77;26.13;;;2.30;99.90;;;;;;5054865;28;20482;-72
2023/01/17 10:48:23;;;;;;;37.10;25.60;;;2.30;99.90;;;;;;5056413;28;20803;-73
2023/01/17 10:50:59;;;;;;;32.63;26.57;;;2.30;99.90;;;;;;5068131;28;20454;-71
2023/01/17 10:53:39;;;;;;;34.00;25.40;;;2.30;99.90;;;;;;5063232;28;20463;-72
2023/01/17 10:56:09;;;;;;;26.60;24.33;;;2.30;99.90;;;;;;5060062;28;20548;-71
2023/01/17 10:58:36;;;;;;;29.47;26.30;;;2.30;99.90;;;;;;5067400;28;20471;-73
2023/01/17 11:01:12;;;;;;;27.53;24.83;;;2.40;99.90;;;;;;5067951;28;20467;-71
2023/01/17 11:03:41;;;;;;;39.87;25.60;;;2.40;99.90;;;;;;5068660;28;20469;-71
2023/01/17 11:06:19;;;;;;;28.20;25.87;;;2.40;99.90;;;;;;5072764;28;20523;-71
2023/01/17 11:08:51;;;;;;;28.77;25.83;;;2.50;99.90;;;;;;5069212;28;21031;-73
2023/01/17 11:11:21;;;;;;;26.23;23.90;;;2.50;99.90;;;;;;5061223;28;20458;-73
2023/01/17 11:13:49;;;;;;;32.40;24.40;;;2.60;99.90;;;;;;5067779;28;20471;-72
2023/01/17 11:16:20;;;;;;;27.70;24.90;;;2.90;99.90;;;;;;5069123;28;20451;-71
2023/01/17 11:18:48;;;;;;;25.73;23.17;;;3.60;99.90;;;;;;5056620;28;20462;-71
2023/01/17 11:21:18;;;;;;;29.33;23.43;;;4.10;99.90;;;;;;5061250;28;20788;-72
2023/01/17 11:23:47;;;;;;;30.30;25.33;;;4.50;99.90;;;;;;5061242;28;20466;-72
2023/01/17 11:26:25;;;;;;;25.27;23.10;;;4.70;99.90;;;;;;5058348;28;20491;-71
2023/01/17 11:28:53;;;;;;;25.23;22.57;;;4.60;99.90;;;;;;5066107;28;20466;-72
2023/01/17 11:31:25;;;;;;;25.47;22.80;;;4.70;99.90;;;;;;5066646;28;20470;-71
2023/01/17 11:34:08;;;;;;;23.87;21.30;;;5.00;99.90;;;;;;5064196;28;20466;-71
2023/01/17 11:36:35;;;;;;;23.70;21.57;;;5.10;99.90;;;;;;5057163;28;20454;-69
2023/01/17 11:39:04;;;;;;;21.97;19.97;;;5.30;99.90;;;;;;5066064;28;20508;-70
2023/01/17 11:41:35;;;;;;;21.23;19.33;;;5.20;99.90;;;;;;5064008;28;20961;-70
2023/01/17 11:44:03;;;;;;;22.57;20.60;;;4.90;99.90;;;;;;5057748;28;20462;-69
2023/01/17 11:46:31;;;;;;;24.03;20.20;;;4.70;99.90;;;;;;5057746;28;20490;-69
2023/01/17 11:49:01;;;;;;;23.90;21.70;;;4.70;99.90;;;;;;5065558;28;20454;-69
2023/01/17 11:51:30;;;;;;;23.73;21.63;;;4.90;99.90;;;;;;5071127;28;20492;-69
2023/01/17 11:54:15;;;;;;;22.23;20.33;;;5.30;99.90;;;;;;5066609;28;20470;-70
2023/01/17 11:56:45;;;;;;;24.70;19.80;;;6.10;99.90;;;;;;5071383;28;20472;-68
2023/01/17 11:59:30;;;;;;;21.30;19.73;;;6.80;99.90;;;;;;5064158;28;20447;-70
2023/01/17 12:02:33;;;;;;;21.80;19.83;;;7.10;99.90;;;;;;5066637;28;20463;-69
2023/01/17 12:05:08;;;;;;;22.57;19.67;;;7.20;99.90;;;;;;4984427;28;21031;-70
2023/01/17 12:07:53;;;;;;;20.47;18.53;;;7.00;99.90;;;;;;5041911;28;20497;-70
2023/01/17 12:10:25;;;;;;;22.43;19.97;;;6.90;99.90;;;;;;5057676;28;20995;-70
2023/01/17 12:16:00;;;;;;;21.50;19.63;;;6.90;99.90;;;;;;5072335;28;20492;-70
2023/01/17 12:18:42;;;;;;;20.03;18.43;;;7.40;99.90;;;;;;5070047;28;20953;-69
2023/01/17 12:21:25;;;;;;;21.60;19.30;;;7.60;99.90;;;;;;5065395;28;20460;-70
2023/01/17 12:24:09;;;;;;;19.23;17.77;;;8.00;99.90;;;;;;5062960;28;20465;-71
2023/01/17 12:26:39;;;;;;;20.13;18.47;;;8.20;99.90;;;;;;5053037;28;20485;-70
2023/01/17 12:29:49;;;;;;;19.27;17.50;;;7.90;99.90;;;;;;5054251;28;20466;-71
2023/01/17 12:32:49;;;;;;;19.07;17.17;;;8.10;99.90;;;;;;5039791;28;20858;-70
2023/01/17 12:35:18;;;;;;;17.90;16.80;;;8.70;99.90;;;;;;5047478;28;20587;-72
2023/01/17 12:37:49;;;;;;;19.17;17.47;;;9.00;99.90;;;;;;5052631;28;20470;-69
2023/01/17 12:40:23;;;;;;;21.23;19.40;;;8.80;99.90;;;;;;5061876;28;20779;-72
2023/01/17 12:42:54;;;;;;;18.00;16.67;;;8.60;99.90;;;;;;5068183;28;20561;-71
2023/01/17 12:45:30;;;;;;;18.40;16.90;;;8.90;99.90;;;;;;5064418;28;20469;-70
2023/01/17 12:48:01;;;;;;;19.07;17.47;;;8.90;99.90;;;;;;5063851;28;21088;-70
2023/01/17 12:50:33;;;;;;;19.03;17.67;;;9.10;99.90;;;;;;5058794;28;20481;-70
2023/01/17 12:53:04;;;;;;;18.10;16.20;;;9.50;99.90;;;;;;5061982;28;20832;-71
2023/01/17 12:55:39;;;;;;;17.10;15.90;;;9.80;99.90;;;;;;5067390;28;20888;-71
2023/01/17 13:01:00;;;;;;;17.23;16.23;;;9.50;99.90;;;;;;5062711;28;20962;-70
2023/01/17 13:03:35;;;;;;;17.80;16.60;;;9.50;99.90;;;;;;5060912;28;20554;-71
2023/01/17 13:06:03;;;;;;;17.93;16.50;;;9.70;99.90;;;;;;5066043;28;20493;-71
2023/01/17 13:08:40;;;;;;;17.17;16.00;;;9.60;99.90;;;;;;5063771;28;20469;-72
2023/01/17 13:11:11;;;;;;;17.73;16.10;;;9.60;99.90;;;;;;5068869;28;20620;-71
2023/01/17 13:13:42;;;;;;;17.43;16.10;;;8.90;99.90;;;;;;5064800;28;20466;-72
2023/01/17 13:16:15;;;;;;;17.93;16.60;;;8.70;99.90;;;;;;5069831;28;20470;-71
2023/01/17 13:18:46;;;;;;;17.10;15.70;;;8.50;99.90;;;;;;5066982;28;20929;-72
2023/01/17 13:21:30;;;;;;;18.47;16.27;;;8.70;99.90;;;;;;5066449;28;20567;-72
2023/01/17 13:24:15;;;;;;;18.83;16.60;;;8.90;99.90;;;;;;5063167;28;20960;-71
2023/01/17 13:26:57;;;;;;;17.17;15.53;;;9.10;99.90;;;;;;5065029;28;20490;-72
2023/01/17 13:29:34;;;;;;;17.30;15.97;;;9.40;99.90;;;;;;5062623;28;20498;-72
2023/01/17 13:32:14;;;;;;;17.07;15.63;;;9.40;99.90;;;;;;5064177;28;20465;-70
2023/01/17 13:34:58;;;;;;;17.57;16.37;;;9.50;99.90;;;;;;5064937;28;20463;-69
2023/01/17 13:37:43;;;;;;;17.33;16.00;;;9.80;99.90;;;;;;5060783;28;20494;-70
2023/01/17 13:40:31;;;;;;;17.80;16.43;;;9.70;99.90;;;;;;5072926;28;20870;-70
2023/01/17 13:43:00;;;;;;;17.80;16.50;;;9.70;99.90;;;;;;5063592;28;20467;-69
2023/01/17 13:45:29;;;;;;;17.93;16.73;;;10.00;99.90;;;;;;5069601;28;20459;-71
2023/01/17 13:48:26;;;;;;;18.30;16.90;;;10.10;99.90;;;;;;5065199;28;20478;-71
2023/01/17 13:50:54;;;;;;;18.43;17.07;;;10.50;99.90;;;;;;5064608;28;20459;-69
2023/01/17 13:53:55;;;;;;;18.23;16.63;;;10.20;99.90;;;;;;5060854;28;20473;-70
2023/01/17 13:56:36;;;;;;;18.50;17.20;;;9.60;99.90;;;;;;5064832;28;20458;-70
2023/01/17 13:59:27;;;;;;;18.27;17.00;;;9.60;99.90;;;;;;5057367;28;20482;-71
2023/01/17 14:01:55;;;;;;;18.40;17.17;;;9.30;99.90;;;;;;5060182;28;20585;-71
2023/01/17 14:04:45;;;;;;;17.63;16.43;;;9.00;99.90;;;;;;5060541;28;20469;-72
2023/01/17 14:07:24;;;;;;;17.63;16.43;;;9.20;99.90;;;;;;5059324;28;20545;-70
2023/01/17 14:09:51;;;;;;;17.67;16.53;;;9.10;99.90;;;;;;5059261;28;20455;-71
2023/01/17 14:12:35;;;;;;;17.70;16.60;;;9.30;99.90;;;;;;5059842;28;20470;-70
2023/01/17 14:15:04;;;;;;;18.40;17.00;;;9.60;99.90;;;;;;5065529;28;20458;-70
2023/01/17 14:17:55;;;;;;;17.27;16.27;;;9.70;99.90;;;;;;5063398;28;20483;-69
2023/01/17 14:20:48;;;;;;;17.63;16.50;;;9.30;99.90;;;;;;5064209;28;20599;-69